sensor_id;sensor_type;location;lat;lon;timestamp;temperature;humidity
22249;DHT22;67538;52.180;5.646;2023-07-13T00:01:58;16.50;99.90
22249;DHT22;67538;52.180;5.646;2023-07-13T00:04:25;16.50;99.90
22249;DHT22;67538;52.180;5.646;2023-07-13T00:06:54;16.50;99.90
22249;DHT22;67538;52.180;5.646;2023-07-13T00:09:21;16.40;99.90
22249;DHT22;67538;52.180;5.646;2023-07-13T00:11:52;16.40;99.90
22249;DHT22;67538;52.180;5.646;2023-07-13T00:14:20;16.40;99.90
22249;DHT22;67538;52.180;5.646;2023-07-13T00:16:47;16.40;99.90
22249;DHT22;67538;52.180;5.646;2023-07-13T00:19:15;16.40;99.90
22249;DHT22;67538;52.180;5.646;2023-07-13T00:21:43;16.30;99.90
22249;DHT22;67538;52.180;5.646;2023-07-13T00:24:13;16.30;99.90
22249;DHT22;67538;52.180;5.646;2023-07-13T00:26:41;16.20;99.90
22249;DHT22;67538;52.180;5.646;2023-07-13T00:29:10;16.20;99.90
22249;DHT22;67538;52.180;5.646;2023-07-13T00:31:37;16.10;99.90
22249;DHT22;67538;52.180;5.646;2023-07-13T00:34:05;16.00;99.90
22249;DHT22;67538;52.180;5.646;2023-07-13T00:36:32;15.90;99.90
22249;DHT22;67538;52.180;5.646;2023-07-13T00:39:00;15.80;99.90
22249;DHT22;67538;52.180;5.646;2023-07-13T00:41:28;15.70;99.90
22249;DHT22;67538;52.180;5.646;2023-07-13T00:43:56;15.70;99.90
22249;DHT22;67538;52.180;5.646;2023-07-13T00:46:26;15.60;99.90
22249;DHT22;67538;52.180;5.646;2023-07-13T00:48:56;15.60;99.90
22249;DHT22;67538;52.180;5.646;2023-07-13T00:51:31;15.50;99.90
22249;DHT22;67538;52.180;5.646;2023-07-13T00:54:02;15.40;99.90
22249;DHT22;67538;52.180;5.646;2023-07-13T00:56:33;15.40;99.90
22249;DHT22;67538;52.180;5.646;2023-07-13T00:59:03;15.30;99.90
22249;DHT22;67538;52.180;5.646;2023-07-13T01:01:32;15.30;99.90
22249;DHT22;67538;52.180;5.646;2023-07-13T01:03:59;15.30;99.90
22249;DHT22;67538;52.180;5.646;2023-07-13T01:06:28;15.30;99.90
22249;DHT22;67538;52.180;5.646;2023-07-13T01:08:56;15.30;99.90
22249;DHT22;67538;52.180;5.646;2023-07-13T01:11:24;15.20;99.90
22249;DHT22;67538;52.180;5.646;2023-07-13T01:13:55;15.20;99.90
22249;DHT22;67538;52.180;5.646;2023-07-13T01:16:25;15.10;99.90
22249;DHT22;67538;52.180;5.646;2023-07-13T01:18:52;15.20;99.90
22249;DHT22;67538;52.180;5.646;2023-07-13T01:21:21;15.20;99.90
22249;DHT22;67538;52.180;5.646;2023-07-13T01:23:48;15.20;99.90
22249;DHT22;67538;52.180;5.646;2023-07-13T01:26:16;15.20;99.90
22249;DHT22;67538;52.180;5.646;2023-07-13T01:28:43;15.10;99.90
22249;DHT22;67538;52.180;5.646;2023-07-13T01:31:11;15.00;99.90
22249;DHT22;67538;52.180;5.646;2023-07-13T01:33:40;15.00;99.90
22249;DHT22;67538;52.180;5.646;2023-07-13T01:36:08;15.00;99.90
22249;DHT22;67538;52.180;5.646;2023-07-13T01:38:37;15.00;99.90
22249;DHT22;67538;52.180;5.646;2023-07-13T01:41:05;15.00;99.90
22249;DHT22;67538;52.180;5.646;2023-07-13T01:46:53;14.90;99.90
22249;DHT22;67538;52.180;5.646;2023-07-13T01:49:20;14.90;99.90
22249;DHT22;67538;52.180;5.646;2023-07-13T01:51:47;14.90;99.90
22249;DHT22;67538;52.180;5.646;2023-07-13T01:54:16;14.90;99.90
22249;DHT22;67538;52.180;5.646;2023-07-13T01:56:43;14.90;99.90
22249;DHT22;67538;52.180;5.646;2023-07-13T01:59:10;14.80;99.90
22249;DHT22;67538;52.180;5.646;2023-07-13T02:01:37;14.80;99.90
22249;DHT22;67538;52.180;5.646;2023-07-13T02:04:05;14.80;99.90
22249;DHT22;67538;52.180;5.646;2023-07-13T02:06:32;14.70;99.90
22249;DHT22;67538;52.180;5.646;2023-07-13T02:08:59;14.70;99.90
22249;DHT22;67538;52.180;5.646;2023-07-13T02:11:28;14.70;99.90
22249;DHT22;67538;52.180;5.646;2023-07-13T02:13:58;14.70;99.90
22249;DHT22;67538;52.180;5.646;2023-07-13T02:16:25;14.60;99.90
22249;DHT22;67538;52.180;5.646;2023-07-13T02:18:53;14.60;99.90
22249;DHT22;67538;52.180;5.646;2023-07-13T02:21:21;14.60;99.90
22249;DHT22;67538;52.180;5.646;2023-07-13T02:23:49;14.60;99.90
22249;DHT22;67538;52.180;5.646;2023-07-13T02:26:16;14.60;99.90
22249;DHT22;67538;52.180;5.646;2023-07-13T02:28:44;14.60;99.90
22249;DHT22;67538;52.180;5.646;2023-07-13T02:31:13;14.60;99.90
22249;DHT22;67538;52.180;5.646;2023-07-13T02:33:41;14.50;99.90
22249;DHT22;67538;52.180;5.646;2023-07-13T02:36:09;14.50;99.90
22249;DHT22;67538;52.180;5.646;2023-07-13T02:38:37;14.50;99.90
22249;DHT22;67538;52.180;5.646;2023-07-13T02:41:04;14.50;99.90
22249;DHT22;67538;52.180;5.646;2023-07-13T02:43:32;14.50;99.90
22249;DHT22;67538;52.180;5.646;2023-07-13T02:46:01;14.50;99.90
22249;DHT22;67538;52.180;5.646;2023-07-13T02:48:32;14.50;99.90
22249;DHT22;67538;52.180;5.646;2023-07-13T02:50:59;14.50;99.90
22249;DHT22;67538;52.180;5.646;2023-07-13T02:53:27;14.50;99.90
22249;DHT22;67538;52.180;5.646;2023-07-13T02:55:54;14.50;99.90
22249;DHT22;67538;52.180;5.646;2023-07-13T02:58:22;14.50;99.90
22249;DHT22;67538;52.180;5.646;2023-07-13T03:00:49;14.50;99.90
22249;DHT22;67538;52.180;5.646;2023-07-13T03:03:18;14.50;99.90
22249;DHT22;67538;52.180;5.646;2023-07-13T03:05:46;14.50;99.90
22249;DHT22;67538;52.180;5.646;2023-07-13T03:08:16;14.50;99.90
22249;DHT22;67538;52.180;5.646;2023-07-13T03:10:44;14.50;99.90
22249;DHT22;67538;52.180;5.646;2023-07-13T03:13:11;14.50;99.90
22249;DHT22;67538;52.180;5.646;2023-07-13T03:15:38;14.60;99.90
22249;DHT22;67538;52.180;5.646;2023-07-13T03:18:06;14.50;99.90
22249;DHT22;67538;52.180;5.646;2023-07-13T03:20:34;14.50;99.90
22249;DHT22;67538;52.180;5.646;2023-07-13T03:23:02;14.50;99.90
22249;DHT22;67538;52.180;5.646;2023-07-13T03:25:29;14.60;99.90
22249;DHT22;67538;52.180;5.646;2023-07-13T03:27:56;14.60;99.90
22249;DHT22;67538;52.180;5.646;2023-07-13T03:30:24;14.60;99.90
22249;DHT22;67538;52.180;5.646;2023-07-13T03:32:51;14.50;99.90
22249;DHT22;67538;52.180;5.646;2023-07-13T03:35:18;14.50;99.90
22249;DHT22;67538;52.180;5.646;2023-07-13T03:37:47;14.60;99.90
22249;DHT22;67538;52.180;5.646;2023-07-13T03:40:14;14.60;99.90
22249;DHT22;67538;52.180;5.646;2023-07-13T03:42:41;14.50;99.90
22249;DHT22;67538;52.180;5.646;2023-07-13T03:45:09;14.60;99.90
22249;DHT22;67538;52.180;5.646;2023-07-13T03:47:36;14.60;99.90
22249;DHT22;67538;52.180;5.646;2023-07-13T03:50:04;14.60;99.90
22249;DHT22;67538;52.180;5.646;2023-07-13T03:52:31;14.60;99.90
22249;DHT22;67538;52.180;5.646;2023-07-13T03:55:00;14.60;99.90
22249;DHT22;67538;52.180;5.646;2023-07-13T03:57:27;14.60;99.90
22249;DHT22;67538;52.180;5.646;2023-07-13T03:59:54;14.50;99.90
22249;DHT22;67538;52.180;5.646;2023-07-13T04:02:21;14.50;99.90
22249;DHT22;67538;52.180;5.646;2023-07-13T04:04:49;14.50;99.90
22249;DHT22;67538;52.180;5.646;2023-07-13T04:07:16;14.50;99.90
22249;DHT22;67538;52.180;5.646;2023-07-13T04:09:44;14.50;99.90
22249;DHT22;67538;52.180;5.646;2023-07-13T04:12:13;14.50;99.90
22249;DHT22;67538;52.180;5.646;2023-07-13T04:14:40;14.50;99.90
22249;DHT22;67538;52.180;5.646;2023-07-13T04:17:07;14.50;99.90
22249;DHT22;67538;52.180;5.646;2023-07-13T04:19:35;14.50;99.90
22249;DHT22;67538;52.180;5.646;2023-07-13T04:22:02;14.50;99.90
22249;DHT22;67538;52.180;5.646;2023-07-13T04:24:29;14.50;99.90
22249;DHT22;67538;52.180;5.646;2023-07-13T04:26:56;14.50;99.90
22249;DHT22;67538;52.180;5.646;2023-07-13T04:29:26;14.50;99.90
22249;DHT22;67538;52.180;5.646;2023-07-13T04:31:53;14.50;99.90
22249;DHT22;67538;52.180;5.646;2023-07-13T04:34:21;14.50;99.90
22249;DHT22;67538;52.180;5.646;2023-07-13T04:36:49;14.50;99.90
22249;DHT22;67538;52.180;5.646;2023-07-13T04:39:18;14.60;99.90
22249;DHT22;67538;52.180;5.646;2023-07-13T04:41:45;14.60;99.90
22249;DHT22;67538;52.180;5.646;2023-07-13T04:44:12;14.60;99.90
22249;DHT22;67538;52.180;5.646;2023-07-13T04:46:41;14.60;99.90
22249;DHT22;67538;52.180;5.646;2023-07-13T04:49:09;14.70;99.90
22249;DHT22;67538;52.180;5.646;2023-07-13T04:51:36;14.70;99.90
22249;DHT22;67538;52.180;5.646;2023-07-13T04:54:04;14.70;99.90
22249;DHT22;67538;52.180;5.646;2023-07-13T04:56:33;14.80;99.90
22249;DHT22;67538;52.180;5.646;2023-07-13T04:59:00;14.80;99.90
22249;DHT22;67538;52.180;5.646;2023-07-13T05:01:27;14.90;99.90
22249;DHT22;67538;52.180;5.646;2023-07-13T05:03:56;14.90;99.90
22249;DHT22;67538;52.180;5.646;2023-07-13T05:06:25;15.00;99.90
22249;DHT22;67538;52.180;5.646;2023-07-13T05:08:52;15.00;99.90
22249;DHT22;67538;52.180;5.646;2023-07-13T05:11:19;15.10;99.90
22249;DHT22;67538;52.180;5.646;2023-07-13T05:13:46;15.10;99.90
22249;DHT22;67538;52.180;5.646;2023-07-13T05:16:13;15.10;99.90
22249;DHT22;67538;52.180;5.646;2023-07-13T05:18:40;15.20;99.90
22249;DHT22;67538;52.180;5.646;2023-07-13T05:21:10;15.20;99.90
22249;DHT22;67538;52.180;5.646;2023-07-13T05:23:38;15.30;99.90
22249;DHT22;67538;52.180;5.646;2023-07-13T05:26:07;15.30;99.90
22249;DHT22;67538;52.180;5.646;2023-07-13T05:28:34;15.30;99.90
22249;DHT22;67538;52.180;5.646;2023-07-13T05:31:01;15.40;99.90
22249;DHT22;67538;52.180;5.646;2023-07-13T05:33:29;15.40;99.90
22249;DHT22;67538;52.180;5.646;2023-07-13T05:35:56;15.50;99.90
22249;DHT22;67538;52.180;5.646;2023-07-13T05:38:25;15.50;99.90
22249;DHT22;67538;52.180;5.646;2023-07-13T05:40:54;15.50;99.90
22249;DHT22;67538;52.180;5.646;2023-07-13T05:43:22;15.50;99.90
22249;DHT22;67538;52.180;5.646;2023-07-13T05:45:52;15.60;99.90
22249;DHT22;67538;52.180;5.646;2023-07-13T05:48:19;15.70;99.90
22249;DHT22;67538;52.180;5.646;2023-07-13T05:50:46;15.70;99.90
22249;DHT22;67538;52.180;5.646;2023-07-13T05:53:14;15.80;99.90
22249;DHT22;67538;52.180;5.646;2023-07-13T05:55:44;15.80;99.90
22249;DHT22;67538;52.180;5.646;2023-07-13T05:58:13;15.80;99.90
22249;DHT22;67538;52.180;5.646;2023-07-13T06:00:40;15.90;99.90
22249;DHT22;67538;52.180;5.646;2023-07-13T06:03:08;16.00;99.90
22249;DHT22;67538;52.180;5.646;2023-07-13T06:05:36;16.00;99.90
22249;DHT22;67538;52.180;5.646;2023-07-13T06:08:04;16.00;99.90
22249;DHT22;67538;52.180;5.646;2023-07-13T06:10:32;16.10;99.90
22249;DHT22;67538;52.180;5.646;2023-07-13T06:13:01;16.00;99.90
22249;DHT22;67538;52.180;5.646;2023-07-13T06:15:28;16.00;99.90
22249;DHT22;67538;52.180;5.646;2023-07-13T06:17:55;16.10;99.90
22249;DHT22;67538;52.180;5.646;2023-07-13T06:20:23;16.10;99.90
22249;DHT22;67538;52.180;5.646;2023-07-13T06:22:50;16.20;99.90
22249;DHT22;67538;52.180;5.646;2023-07-13T06:25:17;16.20;99.90
22249;DHT22;67538;52.180;5.646;2023-07-13T06:27:44;16.10;99.90
22249;DHT22;67538;52.180;5.646;2023-07-13T06:30:13;16.20;99.90
22249;DHT22;67538;52.180;5.646;2023-07-13T06:32:41;16.30;99.90
22249;DHT22;67538;52.180;5.646;2023-07-13T06:35:08;16.40;99.90
22249;DHT22;67538;52.180;5.646;2023-07-13T06:37:38;16.40;99.90
22249;DHT22;67538;52.180;5.646;2023-07-13T06:40:06;16.50;99.90
22249;DHT22;67538;52.180;5.646;2023-07-13T06:42:34;16.50;99.90
22249;DHT22;67538;52.180;5.646;2023-07-13T06:45:01;16.60;99.90
22249;DHT22;67538;52.180;5.646;2023-07-13T06:47:29;16.70;99.90
22249;DHT22;67538;52.180;5.646;2023-07-13T06:49:57;16.60;99.90
22249;DHT22;67538;52.180;5.646;2023-07-13T06:52:24;16.60;99.90
22249;DHT22;67538;52.180;5.646;2023-07-13T06:54:51;16.60;99.90
22249;DHT22;67538;52.180;5.646;2023-07-13T06:57:19;16.60;99.90
22249;DHT22;67538;52.180;5.646;2023-07-13T06:59:46;16.60;99.90
22249;DHT22;67538;52.180;5.646;2023-07-13T07:02:14;16.70;99.90
22249;DHT22;67538;52.180;5.646;2023-07-13T07:04:42;16.70;99.90
22249;DHT22;67538;52.180;5.646;2023-07-13T07:07:09;16.80;99.90
22249;DHT22;67538;52.180;5.646;2023-07-13T07:09:36;16.80;99.90
22249;DHT22;67538;52.180;5.646;2023-07-13T07:12:04;16.90;99.90
22249;DHT22;67538;52.180;5.646;2023-07-13T07:14:32;16.90;99.90
22249;DHT22;67538;52.180;5.646;2023-07-13T07:17:00;17.10;99.90
22249;DHT22;67538;52.180;5.646;2023-07-13T07:19:29;17.10;99.90
22249;DHT22;67538;52.180;5.646;2023-07-13T07:21:58;17.20;99.90
22249;DHT22;67538;52.180;5.646;2023-07-13T07:24:25;17.30;99.90
22249;DHT22;67538;52.180;5.646;2023-07-13T07:26:52;17.40;99.90
22249;DHT22;67538;52.180;5.646;2023-07-13T07:29:19;17.30;99.90
22249;DHT22;67538;52.180;5.646;2023-07-13T07:31:46;17.30;99.90
22249;DHT22;67538;52.180;5.646;2023-07-13T07:34:13;17.40;99.90
22249;DHT22;67538;52.180;5.646;2023-07-13T07:36:41;17.30;99.90
22249;DHT22;67538;52.180;5.646;2023-07-13T07:39:09;17.50;99.90
22249;DHT22;67538;52.180;5.646;2023-07-13T07:41:37;17.60;99.90
22249;DHT22;67538;52.180;5.646;2023-07-13T07:44:04;17.90;99.90
22249;DHT22;67538;52.180;5.646;2023-07-13T07:46:33;18.00;99.90
22249;DHT22;67538;52.180;5.646;2023-07-13T07:49:00;18.00;99.90
22249;DHT22;67538;52.180;5.646;2023-07-13T07:51:27;17.80;99.90
22249;DHT22;67538;52.180;5.646;2023-07-13T07:53:54;17.50;99.90
22249;DHT22;67538;52.180;5.646;2023-07-13T07:56:23;17.50;99.90
22249;DHT22;67538;52.180;5.646;2023-07-13T07:58:50;17.40;99.90
22249;DHT22;67538;52.180;5.646;2023-07-13T08:01:17;17.50;99.90
22249;DHT22;67538;52.180;5.646;2023-07-13T08:03:44;17.40;99.90
22249;DHT22;67538;52.180;5.646;2023-07-13T08:06:12;17.40;99.90
22249;DHT22;67538;52.180;5.646;2023-07-13T08:08:39;17.40;99.90
22249;DHT22;67538;52.180;5.646;2023-07-13T08:11:07;17.50;99.90
22249;DHT22;67538;52.180;5.646;2023-07-13T08:13:36;17.50;99.90
22249;DHT22;67538;52.180;5.646;2023-07-13T08:16:04;17.50;99.90
22249;DHT22;67538;52.180;5.646;2023-07-13T08:18:31;17.50;99.90
22249;DHT22;67538;52.180;5.646;2023-07-13T08:21:02;17.60;99.90
22249;DHT22;67538;52.180;5.646;2023-07-13T08:23:29;17.60;99.90
22249;DHT22;67538;52.180;5.646;2023-07-13T08:25:56;17.70;99.90
22249;DHT22;67538;52.180;5.646;2023-07-13T08:28:24;17.70;99.90
22249;DHT22;67538;52.180;5.646;2023-07-13T08:30:52;17.80;99.90
22249;DHT22;67538;52.180;5.646;2023-07-13T08:33:21;17.90;99.90
22249;DHT22;67538;52.180;5.646;2023-07-13T08:35:49;18.30;99.90
22249;DHT22;67538;52.180;5.646;2023-07-13T08:38:17;18.60;99.90
22249;DHT22;67538;52.180;5.646;2023-07-13T08:40:50;19.10;99.90
22249;DHT22;67538;52.180;5.646;2023-07-13T08:43:23;19.40;99.90
22249;DHT22;67538;52.180;5.646;2023-07-13T08:45:57;19.40;99.90
22249;DHT22;67538;52.180;5.646;2023-07-13T08:48:28;19.50;99.90
22249;DHT22;67538;52.180;5.646;2023-07-13T08:50:58;19.50;99.90
22249;DHT22;67538;52.180;5.646;2023-07-13T08:53:34;19.60;99.90
22249;DHT22;67538;52.180;5.646;2023-07-13T08:56:07;19.60;99.90
22249;DHT22;67538;52.180;5.646;2023-07-13T08:58:36;19.40;99.90
22249;DHT22;67538;52.180;5.646;2023-07-13T09:01:14;19.00;99.90
22249;DHT22;67538;52.180;5.646;2023-07-13T09:03:49;18.80;99.90
22249;DHT22;67538;52.180;5.646;2023-07-13T09:06:18;18.90;99.90
22249;DHT22;67538;52.180;5.646;2023-07-13T09:08:51;19.00;99.90
22249;DHT22;67538;52.180;5.646;2023-07-13T09:11:32;19.10;99.90
22249;DHT22;67538;52.180;5.646;2023-07-13T09:14:10;18.90;99.90
22249;DHT22;67538;52.180;5.646;2023-07-13T09:16:44;18.80;99.90
22249;DHT22;67538;52.180;5.646;2023-07-13T09:19:18;18.60;99.90
22249;DHT22;67538;52.180;5.646;2023-07-13T09:21:48;18.60;99.90
22249;DHT22;67538;52.180;5.646;2023-07-13T09:24:36;18.50;99.90
22249;DHT22;67538;52.180;5.646;2023-07-13T09:27:15;18.40;99.90
22249;DHT22;67538;52.180;5.646;2023-07-13T09:29:47;18.20;99.90
22249;DHT22;67538;52.180;5.646;2023-07-13T09:32:21;18.20;99.90
22249;DHT22;67538;52.180;5.646;2023-07-13T09:34:51;18.20;99.90
22249;DHT22;67538;52.180;5.646;2023-07-13T09:37:20;18.30;99.90
22249;DHT22;67538;52.180;5.646;2023-07-13T09:39:49;18.30;99.90
22249;DHT22;67538;52.180;5.646;2023-07-13T09:42:20;18.60;99.90
22249;DHT22;67538;52.180;5.646;2023-07-13T09:44:53;18.80;99.90
22249;DHT22;67538;52.180;5.646;2023-07-13T09:47:24;19.10;99.90
22249;DHT22;67538;52.180;5.646;2023-07-13T09:49:57;19.50;99.90
22249;DHT22;67538;52.180;5.646;2023-07-13T09:52:24;19.70;99.90
22249;DHT22;67538;52.180;5.646;2023-07-13T09:54:54;19.80;99.90
22249;DHT22;67538;52.180;5.646;2023-07-13T09:57:27;19.90;99.90
22249;DHT22;67538;52.180;5.646;2023-07-13T09:59:55;19.90;99.90
22249;DHT22;67538;52.180;5.646;2023-07-13T10:02:28;19.90;99.90
22249;DHT22;67538;52.180;5.646;2023-07-13T10:04:59;20.00;99.90
22249;DHT22;67538;52.180;5.646;2023-07-13T10:07:29;20.10;99.90
22249;DHT22;67538;52.180;5.646;2023-07-13T10:09:58;20.00;99.90
22249;DHT22;67538;52.180;5.646;2023-07-13T10:12:27;19.90;99.90
22249;DHT22;67538;52.180;5.646;2023-07-13T10:14:57;19.50;99.90
22249;DHT22;67538;52.180;5.646;2023-07-13T10:17:29;19.30;99.90
22249;DHT22;67538;52.180;5.646;2023-07-13T10:19:59;18.70;99.90
22249;DHT22;67538;52.180;5.646;2023-07-13T10:22:44;18.30;99.90
22249;DHT22;67538;52.180;5.646;2023-07-13T10:25:17;17.80;99.90
22249;DHT22;67538;52.180;5.646;2023-07-13T10:27:46;17.50;99.90
22249;DHT22;67538;52.180;5.646;2023-07-13T10:30:17;17.50;99.90
22249;DHT22;67538;52.180;5.646;2023-07-13T10:32:47;17.70;99.90
22249;DHT22;67538;52.180;5.646;2023-07-13T10:35:17;17.90;99.90
22249;DHT22;67538;52.180;5.646;2023-07-13T10:37:49;18.10;99.90
22249;DHT22;67538;52.180;5.646;2023-07-13T10:40:22;18.50;99.90
22249;DHT22;67538;52.180;5.646;2023-07-13T10:42:52;18.90;99.90
22249;DHT22;67538;52.180;5.646;2023-07-13T10:45:22;19.20;99.90
22249;DHT22;67538;52.180;5.646;2023-07-13T10:47:54;19.40;99.90
22249;DHT22;67538;52.180;5.646;2023-07-13T10:50:23;19.60;99.90
22249;DHT22;67538;52.180;5.646;2023-07-13T10:52:52;19.60;99.90
22249;DHT22;67538;52.180;5.646;2023-07-13T10:55:35;19.60;99.90
22249;DHT22;67538;52.180;5.646;2023-07-13T10:58:03;19.80;99.90
22249;DHT22;67538;52.180;5.646;2023-07-13T11:00:46;20.00;99.90
22249;DHT22;67538;52.180;5.646;2023-07-13T11:03:18;19.90;99.90
22249;DHT22;67538;52.180;5.646;2023-07-13T11:05:49;19.70;99.90
22249;DHT22;67538;52.180;5.646;2023-07-13T11:08:32;19.70;99.90
22249;DHT22;67538;52.180;5.646;2023-07-13T11:10:59;19.70;99.90
22249;DHT22;67538;52.180;5.646;2023-07-13T11:16:43;19.60;99.90
22249;DHT22;67538;52.180;5.646;2023-07-13T11:19:40;19.90;99.90
22249;DHT22;67538;52.180;5.646;2023-07-13T11:22:13;20.20;99.90
22249;DHT22;67538;52.180;5.646;2023-07-13T11:24:58;20.40;99.90
22249;DHT22;67538;52.180;5.646;2023-07-13T11:27:38;20.70;99.90
22249;DHT22;67538;52.180;5.646;2023-07-13T11:30:23;20.90;99.90
22249;DHT22;67538;52.180;5.646;2023-07-13T11:33:02;20.90;99.90
22249;DHT22;67538;52.180;5.646;2023-07-13T11:35:35;20.80;99.90
22249;DHT22;67538;52.180;5.646;2023-07-13T11:38:13;20.60;99.90
22249;DHT22;67538;52.180;5.646;2023-07-13T11:40:43;20.30;99.90
22249;DHT22;67538;52.180;5.646;2023-07-13T11:43:14;20.30;99.90
22249;DHT22;67538;52.180;5.646;2023-07-13T11:45:42;20.40;99.90
22249;DHT22;67538;52.180;5.646;2023-07-13T11:48:25;20.50;99.90
22249;DHT22;67538;52.180;5.646;2023-07-13T11:50:57;20.40;99.90
22249;DHT22;67538;52.180;5.646;2023-07-13T11:53:28;20.70;99.90
22249;DHT22;67538;52.180;5.646;2023-07-13T11:55:57;20.90;99.90
22249;DHT22;67538;52.180;5.646;2023-07-13T11:58:27;20.90;99.90
22249;DHT22;67538;52.180;5.646;2023-07-13T12:00:58;20.80;99.90
22249;DHT22;67538;52.180;5.646;2023-07-13T12:03:28;20.40;99.90
22249;DHT22;67538;52.180;5.646;2023-07-13T12:05:58;20.00;99.90
22249;DHT22;67538;52.180;5.646;2023-07-13T12:08:26;19.70;99.90
22249;DHT22;67538;52.180;5.646;2023-07-13T12:11:03;19.40;99.90
22249;DHT22;67538;52.180;5.646;2023-07-13T12:13:36;19.20;99.90
22249;DHT22;67538;52.180;5.646;2023-07-13T12:16:12;19.00;99.90
22249;DHT22;67538;52.180;5.646;2023-07-13T12:18:43;19.00;99.90
22249;DHT22;67538;52.180;5.646;2023-07-13T12:21:17;18.90;99.90
22249;DHT22;67538;52.180;5.646;2023-07-13T12:23:48;18.90;99.90
22249;DHT22;67538;52.180;5.646;2023-07-13T12:26:17;18.80;99.90
22249;DHT22;67538;52.180;5.646;2023-07-13T12:28:47;18.80;99.90
22249;DHT22;67538;52.180;5.646;2023-07-13T12:31:25;18.70;99.90
22249;DHT22;67538;52.180;5.646;2023-07-13T12:34:00;18.90;99.90
22249;DHT22;67538;52.180;5.646;2023-07-13T12:36:33;19.00;99.90
22249;DHT22;67538;52.180;5.646;2023-07-13T12:39:04;19.00;99.90
22249;DHT22;67538;52.180;5.646;2023-07-13T12:41:32;19.10;99.90
22249;DHT22;67538;52.180;5.646;2023-07-13T12:44:00;19.30;99.90
22249;DHT22;67538;52.180;5.646;2023-07-13T12:46:27;19.50;99.90
22249;DHT22;67538;52.180;5.646;2023-07-13T12:48:57;19.70;99.90
22249;DHT22;67538;52.180;5.646;2023-07-13T12:51:26;19.70;99.90
22249;DHT22;67538;52.180;5.646;2023-07-13T12:54:05;19.60;99.90
22249;DHT22;67538;52.180;5.646;2023-07-13T12:56:33;19.50;99.90
22249;DHT22;67538;52.180;5.646;2023-07-13T12:59:02;19.50;99.90
22249;DHT22;67538;52.180;5.646;2023-07-13T13:01:34;19.60;99.90
22249;DHT22;67538;52.180;5.646;2023-07-13T13:04:03;19.80;99.90
22249;DHT22;67538;52.180;5.646;2023-07-13T13:06:32;20.10;99.90
22249;DHT22;67538;52.180;5.646;2023-07-13T13:09:03;20.50;99.90
22249;DHT22;67538;52.180;5.646;2023-07-13T13:11:31;20.60;99.90
22249;DHT22;67538;52.180;5.646;2023-07-13T13:13:58;20.70;99.90
22249;DHT22;67538;52.180;5.646;2023-07-13T13:16:30;20.60;99.90
22249;DHT22;67538;52.180;5.646;2023-07-13T13:19:02;20.50;99.90
22249;DHT22;67538;52.180;5.646;2023-07-13T13:21:35;20.40;99.90
22249;DHT22;67538;52.180;5.646;2023-07-13T13:24:08;20.50;99.90
22249;DHT22;67538;52.180;5.646;2023-07-13T13:26:36;20.80;99.90
22249;DHT22;67538;52.180;5.646;2023-07-13T13:29:11;20.90;99.90
22249;DHT22;67538;52.180;5.646;2023-07-13T13:31:40;20.90;99.90
22249;DHT22;67538;52.180;5.646;2023-07-13T13:34:09;20.80;99.90
22249;DHT22;67538;52.180;5.646;2023-07-13T13:36:37;20.70;99.90
22249;DHT22;67538;52.180;5.646;2023-07-13T13:39:18;20.60;99.90
22249;DHT22;67538;52.180;5.646;2023-07-13T13:41:47;20.70;99.90
22249;DHT22;67538;52.180;5.646;2023-07-13T13:44:15;20.90;99.90
22249;DHT22;67538;52.180;5.646;2023-07-13T13:46:44;21.10;99.90
22249;DHT22;67538;52.180;5.646;2023-07-13T13:49:14;21.30;99.90
22249;DHT22;67538;52.180;5.646;2023-07-13T13:51:43;21.30;99.90
22249;DHT22;67538;52.180;5.646;2023-07-13T13:54:16;21.30;99.90
22249;DHT22;67538;52.180;5.646;2023-07-13T13:56:46;21.20;99.90
22249;DHT22;67538;52.180;5.646;2023-07-13T13:59:13;21.20;99.90
22249;DHT22;67538;52.180;5.646;2023-07-13T14:01:42;21.10;99.90
22249;DHT22;67538;52.180;5.646;2023-07-13T14:04:15;21.00;99.90
22249;DHT22;67538;52.180;5.646;2023-07-13T14:06:43;20.80;99.90
22249;DHT22;67538;52.180;5.646;2023-07-13T14:09:12;20.70;99.90
22249;DHT22;67538;52.180;5.646;2023-07-13T14:11:42;20.70;99.90
22249;DHT22;67538;52.180;5.646;2023-07-13T14:14:14;20.90;99.90
22249;DHT22;67538;52.180;5.646;2023-07-13T14:16:42;21.20;99.90
22249;DHT22;67538;52.180;5.646;2023-07-13T14:19:12;21.40;99.90
22249;DHT22;67538;52.180;5.646;2023-07-13T14:21:40;21.60;99.90
22249;DHT22;67538;52.180;5.646;2023-07-13T14:24:07;21.50;99.90
22249;DHT22;67538;52.180;5.646;2023-07-13T14:26:37;21.40;99.90
22249;DHT22;67538;52.180;5.646;2023-07-13T14:29:12;21.60;99.90
22249;DHT22;67538;52.180;5.646;2023-07-13T14:31:40;21.70;99.90
22249;DHT22;67538;52.180;5.646;2023-07-13T14:34:09;21.60;99.90
22249;DHT22;67538;52.180;5.646;2023-07-13T14:36:39;21.30;99.90
22249;DHT22;67538;52.180;5.646;2023-07-13T14:39:12;21.20;99.90
22249;DHT22;67538;52.180;5.646;2023-07-13T14:41:39;21.20;99.90
22249;DHT22;67538;52.180;5.646;2023-07-13T14:44:16;21.00;99.90
22249;DHT22;67538;52.180;5.646;2023-07-13T14:46:45;21.00;99.90
22249;DHT22;67538;52.180;5.646;2023-07-13T14:49:16;21.10;99.90
22249;DHT22;67538;52.180;5.646;2023-07-13T14:51:47;21.10;99.90
22249;DHT22;67538;52.180;5.646;2023-07-13T14:54:15;21.10;99.90
22249;DHT22;67538;52.180;5.646;2023-07-13T14:56:42;21.10;99.90
22249;DHT22;67538;52.180;5.646;2023-07-13T14:59:10;21.30;99.90
22249;DHT22;67538;52.180;5.646;2023-07-13T15:01:40;21.30;99.90
22249;DHT22;67538;52.180;5.646;2023-07-13T15:04:08;21.30;99.90
22249;DHT22;67538;52.180;5.646;2023-07-13T15:06:53;21.20;99.90
22249;DHT22;67538;52.180;5.646;2023-07-13T15:09:21;21.30;99.90
22249;DHT22;67538;52.180;5.646;2023-07-13T15:11:50;21.30;99.90
22249;DHT22;67538;52.180;5.646;2023-07-13T15:14:17;21.30;99.90
22249;DHT22;67538;52.180;5.646;2023-07-13T15:16:47;21.40;99.90
22249;DHT22;67538;52.180;5.646;2023-07-13T15:19:16;21.70;99.90
22249;DHT22;67538;52.180;5.646;2023-07-13T15:21:44;21.70;99.90
22249;DHT22;67538;52.180;5.646;2023-07-13T15:24:12;21.40;99.90
22249;DHT22;67538;52.180;5.646;2023-07-13T15:26:39;21.30;99.90
22249;DHT22;67538;52.180;5.646;2023-07-13T15:29:09;21.20;99.90
22249;DHT22;67538;52.180;5.646;2023-07-13T15:31:36;21.30;99.90
22249;DHT22;67538;52.180;5.646;2023-07-13T15:34:11;21.20;99.90
22249;DHT22;67538;52.180;5.646;2023-07-13T15:36:38;21.20;99.90
22249;DHT22;67538;52.180;5.646;2023-07-13T15:39:06;21.40;99.90
22249;DHT22;67538;52.180;5.646;2023-07-13T15:41:34;21.60;99.90
22249;DHT22;67538;52.180;5.646;2023-07-13T15:44:25;21.80;99.90
22249;DHT22;67538;52.180;5.646;2023-07-13T15:46:53;22.10;99.90
22249;DHT22;67538;52.180;5.646;2023-07-13T15:49:23;22.20;99.90
22249;DHT22;67538;52.180;5.646;2023-07-13T15:51:50;22.10;99.90